createdAt,value
2023-03-03T00:01:20.363Z,23.90
2023-03-03T00:03:47.157Z,23.67
2023-03-03T00:06:14.687Z,22.30
2023-03-03T00:08:41.387Z,24.83
2023-03-03T00:11:08.174Z,25.20
2023-03-03T00:13:56.060Z,25.67
2023-03-03T00:16:23.292Z,25.93
2023-03-03T00:18:50.848Z,25.80
2023-03-03T00:21:50.089Z,27.73
2023-03-03T00:24:43.152Z,25.53
2023-03-03T00:27:34.670Z,26.00
2023-03-03T00:30:01.774Z,28.03
2023-03-03T00:32:39.043Z,27.30
2023-03-03T00:35:23.924Z,29.23
2023-03-03T00:38:04.351Z,25.70
2023-03-03T00:40:37.563Z,26.27
2023-03-03T00:43:24.387Z,28.73
2023-03-03T00:45:53.433Z,28.27
2023-03-03T00:48:23.332Z,30.80
2023-03-03T00:50:52.131Z,30.50
2023-03-03T00:53:20.427Z,31.03
2023-03-03T00:55:51.783Z,30.00
2023-03-03T00:58:21.708Z,32.13
2023-03-03T01:00:50.809Z,29.00
2023-03-03T01:03:24.706Z,30.17
2023-03-03T01:05:52.436Z,29.33
2023-03-03T01:08:19.705Z,31.20
2023-03-03T01:10:51.148Z,29.00
2023-03-03T01:13:20.303Z,29.33
2023-03-03T01:15:47.097Z,27.30
2023-03-03T01:18:14.685Z,28.97
2023-03-03T01:20:41.787Z,26.63
2023-03-03T01:23:08.683Z,29.63
2023-03-03T01:25:35.979Z,27.73
2023-03-03T01:28:03.071Z,28.53
2023-03-03T01:30:30.718Z,25.67
2023-03-03T01:32:57.727Z,30.53
2023-03-03T01:35:24.648Z,27.97
2023-03-03T01:37:51.418Z,28.20
2023-03-03T01:40:27.523Z,27.33
2023-03-03T01:42:54.761Z,27.27
2023-03-03T01:45:21.341Z,26.37
2023-03-03T01:47:53.731Z,25.80
2023-03-03T01:50:39.391Z,24.50
2023-03-03T01:53:12.510Z,25.80
2023-03-03T01:55:41.207Z,24.40
2023-03-03T01:58:16.123Z,25.37
2023-03-03T02:00:46.567Z,25.73
2023-03-03T02:03:13.285Z,24.87
2023-03-03T02:05:41.647Z,26.23
2023-03-03T02:08:12.121Z,24.73
2023-03-03T02:10:38.928Z,24.03
2023-03-03T02:13:05.622Z,26.00
2023-03-03T02:15:37.757Z,23.67
2023-03-03T02:18:11.251Z,24.27
2023-03-03T02:20:59.742Z,24.50
2023-03-03T02:23:32.614Z,24.67
2023-03-03T02:26:05.894Z,25.80
2023-03-03T02:28:35.280Z,26.57
2023-03-03T02:31:02.451Z,25.93
2023-03-03T02:33:29.790Z,27.43
2023-03-03T02:35:56.514Z,27.73
2023-03-03T02:38:42.312Z,29.10
2023-03-03T02:41:42.948Z,28.93
2023-03-03T02:44:16.426Z,30.27
2023-03-03T02:46:47.985Z,29.50
2023-03-03T02:49:20.723Z,29.63
2023-03-03T02:51:47.554Z,28.43
2023-03-03T02:54:16.592Z,27.60
2023-03-03T02:56:43.583Z,29.10
2023-03-03T02:59:10.617Z,28.67
2023-03-03T03:01:37.404Z,27.63
2023-03-03T03:04:10.720Z,27.13
2023-03-03T03:06:37.916Z,27.97
2023-03-03T03:09:06.688Z,26.73
2023-03-03T03:11:35.275Z,25.77
2023-03-03T03:14:03.535Z,26.70
2023-03-03T03:16:32.002Z,27.43
2023-03-03T03:19:00.276Z,24.50
2023-03-03T03:21:27.716Z,27.17
2023-03-03T03:23:54.414Z,27.03
2023-03-03T03:26:21.475Z,25.70
2023-03-03T03:28:49.458Z,24.07
2023-03-03T03:31:17.267Z,24.30
2023-03-03T03:33:44.010Z,24.80
2023-03-03T03:36:11.566Z,23.10
2023-03-03T03:38:38.607Z,25.13
2023-03-03T03:41:06.972Z,22.77
2023-03-03T03:43:34.286Z,22.07
2023-03-03T03:46:01.137Z,22.40
2023-03-03T03:48:28.933Z,23.73
2023-03-03T03:50:55.996Z,23.80
2023-03-03T03:53:22.776Z,22.13
2023-03-03T03:55:49.450Z,22.57
2023-03-03T03:58:18.168Z,20.20
2023-03-03T04:00:46.590Z,21.67
2023-03-03T04:03:17.009Z,23.40
2023-03-03T04:05:43.907Z,20.80
2023-03-03T04:08:11.740Z,21.30
2023-03-03T04:10:38.823Z,22.07
2023-03-03T04:13:05.533Z,21.53
2023-03-03T04:15:32.484Z,23.30
2023-03-03T04:17:59.254Z,23.10
2023-03-03T04:20:25.927Z,19.87
2023-03-03T04:22:52.693Z,20.13
2023-03-03T04:25:19.511Z,19.87
2023-03-03T04:27:46.762Z,20.70
2023-03-03T04:30:15.786Z,18.43
2023-03-03T04:32:42.924Z,18.63
2023-03-03T04:35:10.409Z,18.47
2023-03-03T04:37:37.908Z,22.77
2023-03-03T04:40:09.889Z,19.63
2023-03-03T04:42:36.845Z,19.83
2023-03-03T04:45:05.051Z,17.30
2023-03-03T04:47:33.039Z,16.53
2023-03-03T04:50:00.860Z,20.30
2023-03-03T04:52:27.653Z,21.00
2023-03-03T04:54:54.263Z,19.27
2023-03-03T04:57:20.980Z,20.83
2023-03-03T04:59:47.659Z,19.83
2023-03-03T05:02:14.934Z,19.87
2023-03-03T05:04:41.675Z,19.37
2023-03-03T05:07:08.581Z,18.00
2023-03-03T05:09:35.525Z,17.33
2023-03-03T05:12:02.135Z,19.17
2023-03-03T05:14:28.816Z,19.13
2023-03-03T05:16:55.519Z,18.60
2023-03-03T05:19:22.371Z,19.03
2023-03-03T05:21:49.069Z,18.93
2023-03-03T05:24:16.024Z,17.73
2023-03-03T05:26:42.787Z,17.23
2023-03-03T05:29:09.925Z,19.07
2023-03-03T05:31:37.105Z,20.90
2023-03-03T05:34:03.834Z,17.83
2023-03-03T05:36:30.558Z,20.37
2023-03-03T05:38:57.236Z,20.50
2023-03-03T05:41:24.277Z,20.07
2023-03-03T05:43:50.990Z,20.23
2023-03-03T05:46:17.969Z,21.17
2023-03-03T05:48:45.335Z,19.90
2023-03-03T05:51:11.981Z,19.17
2023-03-03T05:53:38.887Z,19.17
2023-03-03T05:56:05.788Z,17.70
2023-03-03T05:58:32.474Z,18.57
2023-03-03T06:00:59.337Z,18.43
2023-03-03T06:03:25.970Z,18.87
2023-03-03T06:05:52.682Z,19.73
2023-03-03T06:08:19.353Z,21.33
2023-03-03T06:10:46.072Z,19.00
2023-03-03T06:13:12.922Z,18.40
2023-03-03T06:15:39.640Z,19.40
2023-03-03T06:18:06.363Z,20.27
2023-03-03T06:20:33.619Z,18.80
2023-03-03T06:23:00.380Z,23.43
2023-03-03T06:25:27.397Z,21.30
2023-03-03T06:27:54.751Z,21.87
2023-03-03T06:30:21.651Z,20.83
2023-03-03T06:32:48.478Z,21.57
2023-03-03T06:35:15.329Z,19.63
2023-03-03T06:37:42.010Z,21.83
2023-03-03T06:40:09.465Z,21.10
2023-03-03T06:42:36.246Z,23.30
2023-03-03T06:45:02.967Z,25.50
2023-03-03T06:47:29.684Z,23.23
2023-03-03T06:49:59.309Z,23.37
2023-03-03T06:52:27.578Z,22.70
2023-03-03T06:54:58.046Z,21.63
2023-03-03T06:57:30.454Z,23.77
2023-03-03T07:00:17.732Z,22.47
2023-03-03T07:02:44.449Z,23.87
2023-03-03T07:05:15.838Z,22.87
2023-03-03T07:07:43.420Z,22.03
2023-03-03T07:10:27.337Z,23.30
2023-03-03T07:12:56.800Z,21.77
2023-03-03T07:15:26.756Z,21.60
2023-03-03T07:17:58.373Z,21.43
2023-03-03T07:20:32.235Z,23.50
2023-03-03T07:22:59.422Z,20.93
2023-03-03T07:25:32.865Z,23.07
2023-03-03T07:28:22.486Z,22.30
2023-03-03T07:30:50.967Z,22.73
2023-03-03T07:33:34.562Z,21.40
2023-03-03T07:36:03.774Z,22.17
2023-03-03T07:38:51.152Z,22.13
2023-03-03T07:41:26.143Z,21.43
2023-03-03T07:44:04.057Z,22.63
2023-03-03T07:46:45.553Z,22.90
2023-03-03T07:49:35.183Z,22.20
2023-03-03T07:52:18.342Z,21.27
2023-03-03T07:54:46.050Z,23.83
2023-03-03T07:57:21.868Z,23.40
2023-03-03T08:00:29.330Z,21.73
2023-03-03T08:03:17.101Z,23.23
2023-03-03T08:05:46.992Z,23.80
2023-03-03T08:08:32.123Z,25.20
2023-03-03T08:11:03.169Z,23.40
2023-03-03T08:13:39.992Z,23.23
2023-03-03T08:16:09.676Z,23.27
2023-03-03T08:18:51.842Z,24.00
2023-03-03T08:21:21.867Z,22.87
2023-03-03T08:23:53.358Z,24.23
2023-03-03T08:26:22.018Z,22.77
2023-03-03T08:28:49.421Z,23.67
2023-03-03T08:31:28.024Z,23.47
2023-03-03T08:34:01.728Z,23.23
2023-03-03T08:36:28.464Z,23.03
2023-03-03T08:38:55.607Z,22.73
2023-03-03T08:41:22.295Z,22.63
2023-03-03T08:43:49.082Z,22.20
2023-03-03T08:46:16.458Z,23.87
2023-03-03T08:48:43.146Z,23.53
2023-03-03T08:51:09.869Z,23.00
2023-03-03T08:53:38.282Z,24.13
2023-03-03T08:56:05.501Z,25.60
2023-03-03T08:58:35.567Z,22.87
2023-03-03T09:01:03.245Z,21.70
2023-03-03T09:03:30.140Z,22.40
2023-03-03T09:05:56.939Z,22.00
2023-03-03T09:08:23.583Z,21.37
2023-03-03T09:10:50.499Z,24.80
2023-03-03T09:13:21.700Z,21.93
2023-03-03T09:15:49.318Z,22.17
2023-03-03T09:18:25.275Z,24.63
2023-03-03T09:20:54.950Z,24.23
2023-03-03T09:23:54.838Z,24.63
2023-03-03T09:26:28.260Z,25.07
2023-03-03T09:28:58.573Z,23.40
2023-03-03T09:31:33.226Z,23.63
2023-03-03T09:34:00.929Z,26.37
2023-03-03T09:36:38.103Z,22.27
2023-03-03T09:39:19.821Z,21.77
2023-03-03T09:42:31.165Z,23.67
2023-03-03T09:45:22.906Z,21.90
2023-03-03T09:48:09.898Z,20.87
2023-03-03T09:51:09.293Z,22.37
2023-03-03T09:53:46.068Z,23.43
2023-03-03T09:56:15.783Z,24.83
2023-03-03T09:59:11.145Z,24.47
2023-03-03T10:02:29.014Z,24.20
2023-03-03T10:05:08.688Z,23.10
2023-03-03T10:08:03.119Z,24.63
2023-03-03T10:10:36.431Z,23.83
2023-03-03T10:13:06.270Z,22.33
2023-03-03T10:15:52.604Z,23.50
2023-03-03T10:18:42.638Z,26.30
2023-03-03T10:21:35.767Z,25.33
2023-03-03T10:24:02.706Z,26.67
2023-03-03T10:27:09.807Z,21.97
2023-03-03T10:29:56.787Z,21.23
2023-03-03T10:32:49.856Z,20.60
2023-03-03T10:35:26.314Z,22.23
2023-03-03T10:38:14.672Z,20.57
2023-03-03T10:40:44.344Z,22.47
2023-03-03T10:43:32.083Z,23.47
2023-03-03T10:46:14.546Z,26.97
2023-03-03T10:49:00.175Z,25.47
2023-03-03T10:51:35.788Z,28.90
2023-03-03T10:54:24.319Z,24.00
2023-03-03T10:57:17.165Z,21.97
2023-03-03T11:00:02.621Z,21.70
2023-03-03T11:02:47.509Z,21.30
2023-03-03T11:05:23.403Z,22.73
2023-03-03T11:07:57.785Z,25.50
2023-03-03T11:11:02.822Z,27.60
2023-03-03T11:13:56.710Z,17.93
2023-03-03T11:16:44.774Z,29.60
2023-03-03T11:19:25.816Z,21.90
2023-03-03T11:22:23.345Z,21.50
2023-03-03T11:25:03.705Z,20.30
2023-03-03T11:28:05.744Z,18.77
2023-03-03T11:30:42.043Z,20.67
2023-03-03T11:33:52.127Z,19.83
2023-03-03T11:36:30.396Z,18.03
2023-03-03T11:39:01.953Z,17.33
2023-03-03T11:41:38.035Z,18.53
2023-03-03T11:44:23.486Z,17.37
2023-03-03T11:47:12.050Z,17.03
2023-03-03T11:49:41.867Z,17.00
2023-03-03T11:52:11.536Z,16.30
2023-03-03T11:54:56.498Z,18.03
2023-03-03T11:57:50.901Z,17.63
2023-03-03T12:00:50.026Z,21.03
2023-03-03T12:03:19.687Z,23.73
2023-03-03T12:06:01.758Z,23.20
2023-03-03T12:08:33.131Z,18.33
2023-03-03T12:11:07.824Z,16.43
2023-03-03T12:13:40.163Z,16.83
2023-03-03T12:16:17.650Z,17.33
2023-03-03T12:19:13.816Z,16.50
2023-03-03T12:21:58.875Z,14.80
2023-03-03T12:24:25.456Z,15.30
2023-03-03T12:26:59.767Z,15.20
2023-03-03T12:29:33.280Z,16.67
2023-03-03T12:32:14.542Z,15.70
2023-03-03T12:34:58.721Z,15.60
2023-03-03T12:37:37.433Z,14.47
2023-03-03T12:40:24.247Z,16.00
2023-03-03T12:43:01.201Z,14.50
2023-03-03T12:45:36.891Z,14.67
2023-03-03T12:48:15.802Z,15.90
2023-03-03T12:51:18.697Z,15.10
2023-03-03T12:53:45.622Z,15.33
2023-03-03T12:56:34.870Z,15.67
2023-03-03T12:59:23.717Z,15.43
2023-03-03T13:01:59.388Z,15.70
2023-03-03T13:04:38.197Z,15.70
2023-03-03T13:07:12.515Z,17.40
2023-03-03T13:10:07.473Z,18.20
2023-03-03T13:12:49.197Z,17.13
2023-03-03T13:15:31.648Z,19.40
2023-03-03T13:18:04.916Z,17.70
2023-03-03T13:21:11.688Z,17.47
2023-03-03T13:24:19.682Z,18.20
2023-03-03T13:27:08.061Z,19.10
2023-03-03T13:29:41.379Z,19.60
2023-03-03T13:32:23.465Z,19.87
2023-03-03T13:35:03.131Z,20.13
2023-03-03T13:37:43.886Z,17.97
2023-03-03T13:40:13.665Z,19.73
2023-03-03T13:42:42.908Z,19.43
2023-03-03T13:45:44.681Z,18.20
2023-03-03T13:48:35.537Z,18.53
2023-03-03T13:51:24.176Z,18.53
2023-03-03T13:54:17.441Z,18.63
2023-03-03T13:57:07.901Z,19.67
2023-03-03T13:59:55.861Z,19.13
2023-03-03T14:02:56.451Z,18.40
2023-03-03T14:05:36.274Z,18.47
2023-03-03T14:08:30.053Z,17.67
2023-03-03T14:11:11.996Z,19.17
2023-03-03T14:13:55.665Z,19.80
2023-03-03T14:16:58.414Z,19.00
2023-03-03T14:19:26.678Z,18.93
2023-03-03T14:22:15.167Z,18.47
2023-03-03T14:25:00.564Z,18.27
2023-03-03T14:27:34.757Z,19.53
2023-03-03T14:30:31.436Z,18.90
2023-03-03T14:33:01.581Z,18.43
2023-03-03T14:35:50.586Z,19.00
2023-03-03T14:38:20.376Z,17.30
2023-03-03T14:40:48.544Z,18.73
2023-03-03T14:43:26.669Z,19.27
2023-03-03T14:45:55.126Z,20.23
2023-03-03T14:48:30.017Z,20.63
2023-03-03T14:51:34.275Z,20.10
2023-03-03T14:54:00.987Z,21.20
2023-03-03T14:56:34.769Z,20.63
2023-03-03T14:59:19.042Z,21.13
2023-03-03T15:01:46.491Z,19.57
2023-03-03T15:04:16.004Z,20.47
2023-03-03T15:06:45.790Z,18.93
2023-03-03T15:09:39.325Z,19.33
2023-03-03T15:12:38.297Z,18.90
2023-03-03T15:15:05.993Z,20.10
2023-03-03T15:17:37.167Z,19.53
2023-03-03T15:20:10.075Z,19.03
2023-03-03T15:22:55.340Z,19.50
2023-03-03T15:25:42.982Z,19.00
2023-03-03T15:28:16.887Z,19.23
2023-03-03T15:31:08.210Z,19.23
2023-03-03T15:33:59.676Z,17.83
2023-03-03T15:36:49.621Z,19.17
2023-03-03T15:39:47.476Z,18.47
2023-03-03T15:42:47.812Z,18.03
2023-03-03T15:45:37.605Z,18.27
2023-03-03T15:48:04.346Z,16.80
2023-03-03T15:51:09.423Z,16.50
2023-03-03T15:53:56.279Z,17.67
2023-03-03T15:56:42.622Z,17.43
2023-03-03T15:59:16.638Z,18.37
2023-03-03T16:02:00.807Z,18.17
2023-03-03T16:04:34.613Z,17.00
2023-03-03T16:07:04.495Z,16.90
2023-03-03T16:09:36.895Z,17.47
2023-03-03T16:12:27.051Z,17.10
2023-03-03T16:15:26.145Z,17.80
2023-03-03T16:18:17.600Z,17.77
2023-03-03T16:21:06.102Z,16.97
2023-03-03T16:24:01.168Z,16.37
2023-03-03T16:26:44.121Z,17.67
2023-03-03T16:29:52.495Z,17.80
2023-03-03T16:32:41.552Z,17.40
2023-03-03T16:35:14.566Z,17.27
2023-03-03T16:37:53.230Z,17.13
2023-03-03T16:40:23.099Z,14.80
2023-03-03T16:42:57.731Z,16.87
2023-03-03T16:45:51.143Z,15.87
2023-03-03T16:48:42.756Z,14.43
2023-03-03T16:51:15.340Z,15.23
2023-03-03T16:53:51.146Z,15.43
2023-03-03T16:56:39.198Z,15.47
2023-03-03T16:59:21.212Z,16.83
2023-03-03T17:02:12.659Z,16.47
2023-03-03T17:04:57.814Z,16.93
2023-03-03T17:07:58.027Z,16.97
2023-03-03T17:10:37.608Z,16.33
2023-03-03T17:13:23.209Z,17.57
2023-03-03T17:15:49.917Z,17.03
2023-03-03T17:18:37.741Z,16.67
2023-03-03T17:21:34.618Z,16.63
2023-03-03T17:24:08.256Z,17.00
2023-03-03T17:26:50.123Z,16.60
2023-03-03T17:29:57.192Z,17.43
2023-03-03T17:32:41.740Z,16.17
2023-03-03T17:35:50.698Z,16.80
2023-03-03T17:38:48.673Z,17.07
2023-03-03T17:41:26.529Z,17.73
2023-03-03T17:44:07.577Z,18.60
2023-03-03T17:46:42.901Z,17.53
2023-03-03T17:49:39.006Z,17.27
2023-03-03T17:52:37.696Z,17.80
2023-03-03T17:55:22.332Z,17.47
2023-03-03T17:58:04.527Z,19.27
2023-03-03T18:00:37.162Z,17.80
2023-03-03T18:03:41.481Z,18.03
2023-03-03T18:06:17.015Z,19.63
2023-03-03T18:09:14.116Z,16.83
2023-03-03T18:11:56.772Z,17.40
2023-03-03T18:14:42.112Z,16.97
2023-03-03T18:17:24.745Z,16.50
2023-03-03T18:19:59.082Z,16.77
2023-03-03T18:22:32.919Z,15.83
2023-03-03T18:25:09.883Z,16.17
2023-03-03T18:27:39.844Z,17.20
2023-03-03T18:30:20.656Z,17.03
2023-03-03T18:32:56.610Z,15.67
2023-03-03T18:35:29.231Z,16.87
2023-03-03T18:37:56.488Z,15.90
2023-03-03T18:40:34.091Z,17.40
2023-03-03T18:43:38.969Z,17.03
2023-03-03T18:46:09.262Z,16.80
2023-03-03T18:49:03.655Z,16.47
2023-03-03T18:51:39.755Z,16.43
2023-03-03T18:54:12.574Z,16.70
2023-03-03T18:56:45.670Z,17.13
2023-03-03T18:59:30.707Z,17.13
2023-03-03T19:02:15.872Z,15.60
2023-03-03T19:04:56.574Z,16.33
2023-03-03T19:07:29.049Z,15.20
2023-03-03T19:10:00.596Z,15.10
2023-03-03T19:12:47.377Z,13.43
2023-03-03T19:15:38.303Z,13.20
2023-03-03T19:18:15.671Z,13.33
2023-03-03T19:20:48.185Z,10.90
2023-03-03T19:23:21.687Z,8.97
2023-03-03T19:26:29.124Z,7.80
2023-03-03T19:29:46.312Z,7.30
2023-03-03T19:32:40.621Z,6.97
2023-03-03T19:35:35.266Z,6.80
2023-03-03T19:38:19.337Z,6.13
2023-03-03T19:41:17.117Z,6.37
2023-03-03T19:43:54.714Z,6.27
2023-03-03T19:46:46.444Z,6.07
2023-03-03T19:49:27.576Z,5.80
2023-03-03T19:52:08.267Z,5.30
2023-03-03T19:54:59.189Z,6.20
2023-03-03T19:57:40.977Z,5.40
2023-03-03T20:00:16.695Z,4.80
2023-03-03T20:03:10.166Z,4.60
2023-03-03T20:06:09.288Z,4.90
2023-03-03T20:08:53.255Z,4.73
2023-03-03T20:11:35.925Z,4.37
2023-03-03T20:14:10.664Z,4.30
2023-03-03T20:16:41.729Z,4.27
2023-03-03T20:19:24.493Z,4.27
2023-03-03T20:21:58.738Z,3.83
2023-03-03T20:24:54.157Z,4.47
2023-03-03T20:27:29.265Z,3.90
2023-03-03T20:30:31.307Z,3.93
2023-03-03T20:33:29.561Z,4.37
2023-03-03T20:36:14.778Z,4.70
2023-03-03T20:39:00.348Z,4.20
2023-03-03T20:41:33.111Z,5.57
2023-03-03T20:44:12.219Z,4.87
2023-03-03T20:47:20.743Z,4.70
2023-03-03T20:50:02.717Z,4.53
2023-03-03T20:52:35.486Z,4.13
2023-03-03T20:55:16.673Z,4.43
2023-03-03T20:58:09.808Z,4.87
2023-03-03T21:00:48.523Z,4.40
2023-03-03T21:03:34.333Z,4.80
2023-03-03T21:06:09.377Z,4.77
2023-03-03T21:08:49.893Z,5.07
2023-03-03T21:11:20.431Z,4.23
2023-03-03T21:13:54.088Z,4.80
2023-03-03T21:16:20.822Z,4.13
2023-03-03T21:19:10.066Z,4.77
2023-03-03T21:21:42.645Z,5.00
2023-03-03T21:24:15.345Z,5.53
2023-03-03T21:26:58.394Z,4.60
2023-03-03T21:29:30.945Z,5.33
2023-03-03T21:31:58.970Z,4.73
2023-03-03T21:34:32.933Z,4.73
2023-03-03T21:37:01.872Z,5.10
2023-03-03T21:39:30.586Z,5.27
2023-03-03T21:42:01.820Z,4.63
2023-03-03T21:44:29.919Z,5.10
2023-03-03T21:46:58.604Z,4.97
2023-03-03T21:49:25.787Z,5.17
2023-03-03T21:51:52.718Z,4.80
2023-03-03T21:54:19.467Z,4.90
2023-03-03T21:56:48.028Z,4.83
2023-03-03T21:59:14.721Z,5.30
2023-03-03T22:01:41.541Z,4.63
2023-03-03T22:04:08.587Z,4.90
2023-03-03T22:06:36.419Z,4.50
2023-03-03T22:09:05.020Z,4.47
2023-03-03T22:11:32.438Z,4.40
2023-03-03T22:13:59.074Z,5.27
2023-03-03T22:16:25.774Z,5.07
2023-03-03T22:18:52.550Z,4.93
2023-03-03T22:21:19.287Z,4.33
2023-03-03T22:23:46.047Z,4.87
2023-03-03T22:26:12.849Z,4.97
2023-03-03T22:28:39.510Z,4.70
2023-03-03T22:31:06.299Z,4.70
2023-03-03T22:33:33.261Z,5.23
2023-03-03T22:36:00.001Z,4.80
2023-03-03T22:38:26.973Z,4.47
2023-03-03T22:40:54.826Z,4.70
2023-03-03T22:43:21.859Z,5.00
2023-03-03T22:45:48.635Z,4.53
2023-03-03T22:48:15.308Z,5.47
2023-03-03T22:50:43.701Z,4.40
2023-03-03T22:53:10.516Z,5.30
2023-03-03T22:55:37.365Z,5.10
2023-03-03T22:58:05.445Z,4.53
2023-03-03T23:00:33.633Z,4.53
2023-03-03T23:03:00.589Z,5.13
2023-03-03T23:05:27.468Z,4.90
2023-03-03T23:07:54.380Z,4.77
2023-03-03T23:10:21.488Z,4.23
2023-03-03T23:12:48.260Z,5.03
2023-03-03T23:15:15.414Z,5.10
2023-03-03T23:17:46.141Z,4.60
2023-03-03T23:20:16.120Z,4.80
2023-03-03T23:22:42.911Z,4.57
2023-03-03T23:25:11.072Z,4.90
2023-03-03T23:27:38.238Z,5.03
2023-03-03T23:30:05.975Z,5.73
2023-03-03T23:32:32.830Z,5.40
2023-03-03T23:34:59.578Z,5.33
2023-03-03T23:37:26.612Z,4.77
2023-03-03T23:39:53.730Z,5.10
2023-03-03T23:42:20.991Z,4.57
2023-03-03T23:44:47.750Z,4.67
2023-03-03T23:47:14.565Z,3.90
2023-03-03T23:49:41.273Z,4.17
2023-03-03T23:52:08.766Z,3.80
2023-03-03T23:54:35.583Z,4.30
2023-03-03T23:57:02.374Z,5.40
2023-03-03T23:59:29.324Z,5.70
